createdAt,value
2022-09-24T00:01:20.903Z,100025.63
2022-09-24T00:06:20.427Z,100036.84
2022-09-24T00:11:19.720Z,100030.69
2022-09-24T00:16:17.624Z,100017.22
2022-09-24T00:21:17.060Z,100021.16
2022-09-24T00:26:32.587Z,100007.09
2022-09-24T00:31:29.376Z,100026.59
2022-09-24T00:36:25.811Z,100021.84
2022-09-24T00:41:25.856Z,100013.59
2022-09-24T00:46:29.139Z,99996.72
2022-09-24T00:51:28.062Z,99997.84
2022-09-24T00:56:24.718Z,99995.06
2022-09-24T01:01:23.684Z,99991.97
2022-09-24T01:06:20.091Z,99989.47
2022-09-24T01:11:44.461Z,99987.09
2022-09-24T01:16:57.467Z,99981.03
2022-09-24T01:22:03.926Z,99988.50
2022-09-24T01:27:11.148Z,99984.97
2022-09-24T01:32:50.206Z,99991.97
2022-09-24T01:37:52.332Z,99984.13
2022-09-24T01:42:50.974Z,99976.69
2022-09-24T01:47:48.322Z,99972.59
2022-09-24T01:52:52.290Z,99972.16
2022-09-24T01:57:57.143Z,99963.56
2022-09-24T02:03:08.695Z,99959.66
2022-09-24T02:08:15.194Z,99951.63
2022-09-24T02:13:15.454Z,99956.78
2022-09-24T02:18:16.967Z,99955.53
2022-09-24T02:23:16.293Z,99965.03
2022-09-24T02:28:12.743Z,99963.75
2022-09-24T02:33:31.413Z,99964.94
2022-09-24T02:38:27.855Z,99969.69
2022-09-24T02:43:25.014Z,99951.44
2022-09-24T02:48:21.350Z,99952.88
2022-09-24T02:53:17.655Z,99952.28
2022-09-24T02:58:14.029Z,99944.31
2022-09-24T03:03:10.390Z,99942.72
2022-09-24T03:08:07.423Z,99942.72
2022-09-24T03:13:03.970Z,99943.97
2022-09-24T03:18:00.427Z,99940.22
2022-09-24T03:22:56.948Z,99940.91
2022-09-24T03:27:53.323Z,99940.22
2022-09-24T03:32:49.641Z,99936.31
2022-09-24T03:37:49.219Z,99940.22
2022-09-24T03:42:45.705Z,99936.44
2022-09-24T03:47:42.631Z,99930.41
2022-09-24T03:52:39.589Z,99934.47
2022-09-24T03:57:35.911Z,99926.91
2022-09-24T04:02:32.319Z,99922.03
2022-09-24T04:07:28.681Z,99922.03
2022-09-24T04:12:25.111Z,99913.59
2022-09-24T04:17:21.418Z,99913.31
2022-09-24T04:22:17.788Z,99913.44
2022-09-24T04:27:14.147Z,99916.97
2022-09-24T04:32:10.552Z,99918.59
2022-09-24T04:37:06.944Z,99915.44
2022-09-24T04:42:03.357Z,99906.00
2022-09-24T04:47:01.519Z,99904.47
2022-09-24T04:51:58.177Z,99912.00
2022-09-24T04:56:54.534Z,99921.97
2022-09-24T05:01:51.046Z,99916.19
2022-09-24T05:06:48.460Z,99916.09
2022-09-24T05:11:44.798Z,99916.31
2022-09-24T05:16:41.253Z,99928.81
2022-09-24T05:21:37.712Z,99949.09
2022-09-24T05:26:52.645Z,99952.94
2022-09-24T05:31:49.661Z,99955.09
2022-09-24T05:36:46.100Z,99961.56
2022-09-24T05:41:43.511Z,99962.53
2022-09-24T05:46:39.899Z,99974.59
2022-09-24T05:51:36.280Z,99976.03
2022-09-24T05:56:32.637Z,99974.59
2022-09-24T06:01:32.443Z,99969.56
2022-09-24T06:06:29.027Z,99981.75
2022-09-24T06:11:25.589Z,99977.72
2022-09-24T06:16:22.230Z,99982.75
2022-09-24T06:21:18.755Z,99983.34
2022-09-24T06:26:15.194Z,99988.16
2022-09-24T06:31:12.503Z,99985.06
2022-09-24T06:36:09.187Z,99991.28
2022-09-24T06:41:06.800Z,99978.81
2022-09-24T06:46:03.835Z,99988.22
2022-09-24T06:51:00.223Z,99994.69
2022-09-24T06:55:59.511Z,99982.13
2022-09-24T07:01:02.298Z,99986.94
2022-09-24T07:06:04.480Z,99977.41
2022-09-24T07:11:01.528Z,99982.16
2022-09-24T07:15:57.974Z,99985.78
2022-09-24T07:20:55.809Z,99981.88
2022-09-24T07:25:56.314Z,99981.88
2022-09-24T07:30:58.342Z,99978.66
2022-09-24T07:35:54.748Z,99987.50
2022-09-24T07:40:51.351Z,99984.47
2022-09-24T07:45:49.040Z,99978.25
2022-09-24T07:50:45.352Z,99983.88
2022-09-24T07:55:41.709Z,99982.16
2022-09-24T08:00:38.099Z,99980.72
2022-09-24T08:05:34.768Z,99984.56
2022-09-24T08:10:31.086Z,99984.94
2022-09-24T08:15:27.403Z,99987.56
2022-09-24T08:20:24.578Z,99983.59
2022-09-24T08:25:20.917Z,99978.91
2022-09-24T08:30:17.263Z,99984.09
2022-09-24T08:35:15.743Z,99987.72
2022-09-24T08:40:21.799Z,99987.72
2022-09-24T08:45:37.128Z,99983.78
2022-09-24T08:50:39.479Z,99996.94
2022-09-24T08:55:43.294Z,100002.00
2022-09-24T09:01:00.827Z,99997.59
2022-09-24T09:06:24.523Z,99998.38
2022-09-24T09:11:28.003Z,99998.13
2022-09-24T09:16:47.126Z,100003.56
2022-09-24T09:21:52.313Z,100000.66
2022-09-24T09:26:54.573Z,99995.28
2022-09-24T09:32:12.430Z,100001.69
2022-09-24T09:37:29.994Z,100000.31
2022-09-24T09:42:36.142Z,99994.44
2022-09-24T09:47:45.881Z,99999.72
2022-09-24T09:52:42.226Z,99998.19
2022-09-24T09:57:41.467Z,100000.47
2022-09-24T10:02:43.543Z,99996.41
2022-09-24T10:07:46.339Z,100002.09
2022-09-24T10:12:42.882Z,99995.75
2022-09-24T10:17:39.872Z,99992.75
2022-09-24T10:22:37.582Z,99991.81
2022-09-24T10:27:36.402Z,99992.94
2022-09-24T10:32:32.705Z,99980.88
2022-09-24T10:37:30.004Z,99988.47
2022-09-24T10:42:29.271Z,99988.88
2022-09-24T10:47:31.096Z,99986.88
2022-09-24T10:52:42.727Z,99988.72
2022-09-24T10:58:16.625Z,99984.19
2022-09-24T11:03:45.633Z,99983.78
2022-09-24T11:09:03.299Z,99987.16
2022-09-24T11:14:23.927Z,99989.84
2022-09-24T11:19:50.464Z,99989.97
2022-09-24T11:25:14.073Z,99986.16
2022-09-24T11:30:14.799Z,99988.19
2022-09-24T11:35:43.395Z,99984.47
2022-09-24T11:41:01.131Z,99981.28
2022-09-24T11:46:11.985Z,99977.41
2022-09-24T11:51:34.059Z,99976.41
2022-09-24T11:56:35.432Z,99980.78
2022-09-24T12:01:35.885Z,99974.06
2022-09-24T12:06:37.678Z,99976.41
2022-09-24T12:11:41.402Z,99972.84
2022-09-24T12:16:44.316Z,99984.00
2022-09-24T12:21:45.288Z,99978.81
2022-09-24T12:26:42.794Z,99990.06
2022-09-24T12:32:11.009Z,99985.28
2022-09-24T12:37:12.876Z,99979.81
2022-09-24T12:42:12.096Z,99984.84
2022-09-24T12:47:21.530Z,99982.16
2022-09-24T12:52:28.404Z,99980.94
2022-09-24T12:57:28.694Z,99975.91
2022-09-24T13:02:33.095Z,99977.06
2022-09-24T13:07:34.657Z,99969.44
2022-09-24T13:12:33.108Z,99966.84
2022-09-24T13:17:34.585Z,99956.78
2022-09-24T13:22:34.766Z,99954.28
2022-09-24T13:27:31.014Z,99955.59
2022-09-24T13:32:28.285Z,99955.28
2022-09-24T13:37:41.598Z,99954.56
2022-09-24T13:42:55.909Z,99958.91
2022-09-24T13:48:04.146Z,99959.16
2022-09-24T13:53:06.423Z,99954.44
2022-09-24T13:58:02.765Z,99952.44
2022-09-24T14:03:21.632Z,99963.63
2022-09-24T14:08:22.195Z,99962.84
2022-09-24T14:13:22.293Z,99966.16
2022-09-24T14:18:18.609Z,99969.38
2022-09-24T14:23:22.274Z,99967.69
2022-09-24T14:28:19.826Z,99974.72
2022-09-24T14:33:20.581Z,99966.44
2022-09-24T14:38:26.441Z,99973.47
2022-09-24T14:43:41.032Z,99975.63
2022-09-24T14:48:37.401Z,99971.25
2022-09-24T14:53:36.181Z,99977.34
2022-09-24T14:58:36.353Z,99974.50
2022-09-24T15:03:55.522Z,99970.31
2022-09-24T15:08:55.648Z,99969.28
2022-09-24T15:14:15.021Z,99978.19
2022-09-24T15:19:25.948Z,99981.88
2022-09-24T15:24:23.178Z,99977.41
2022-09-24T15:29:25.848Z,99973.78
2022-09-24T15:34:22.374Z,99975.03
2022-09-24T15:39:19.398Z,99980.25
2022-09-24T15:44:23.809Z,99982.41
2022-09-24T15:49:22.099Z,99982.03
2022-09-24T15:54:18.729Z,99982.44
2022-09-24T15:59:15.578Z,99979.34
2022-09-24T16:04:12.295Z,99987.53
2022-09-24T16:09:09.250Z,99984.75
2022-09-24T16:14:05.702Z,99989.09
2022-09-24T16:19:02.127Z,99985.03
2022-09-24T16:24:00.151Z,99992.78
2022-09-24T16:28:56.773Z,99994.09
2022-09-24T16:33:54.203Z,99987.91
2022-09-24T16:38:50.763Z,99991.16
2022-09-24T16:43:47.094Z,99992.94
2022-09-24T16:48:44.269Z,99990.13
2022-09-24T16:53:43.867Z,99993.47
2022-09-24T16:58:45.251Z,99992.31
2022-09-24T17:03:42.444Z,100001.13
2022-09-24T17:08:57.342Z,100003.72
2022-09-24T17:13:53.615Z,100004.63
2022-09-24T17:18:49.900Z,100002.84
2022-09-24T17:23:46.629Z,100008.50
2022-09-24T17:28:45.362Z,100014.41
2022-09-24T17:33:43.665Z,100014.19
2022-09-24T17:38:40.615Z,100008.00
2022-09-24T17:43:37.898Z,100018.56
2022-09-24T17:48:37.976Z,100026.63
2022-09-24T17:53:36.614Z,100025.81
2022-09-24T17:58:37.486Z,100034.25
2022-09-24T18:03:33.917Z,100031.03
2022-09-24T18:08:30.283Z,100030.94
2022-09-24T18:13:26.651Z,100035.91
2022-09-24T18:18:22.923Z,100046.47
2022-09-24T18:23:21.335Z,100058.56
2022-09-24T18:28:18.797Z,100061.69
2022-09-24T18:33:15.364Z,100062.50
2022-09-24T18:38:11.739Z,100060.81
2022-09-24T18:43:08.070Z,100063.06
2022-09-24T18:48:04.569Z,100068.00
2022-09-24T18:53:00.856Z,100073.75
2022-09-24T18:57:57.457Z,100065.63
2022-09-24T19:02:53.887Z,100085.84
2022-09-24T19:07:50.257Z,100085.72
2022-09-24T19:12:46.600Z,100092.03
2022-09-24T19:17:43.064Z,100094.28
2022-09-24T19:22:39.377Z,100099.31
2022-09-24T19:27:35.655Z,100111.81
2022-09-24T19:32:32.010Z,100110.41
2022-09-24T19:37:29.047Z,100117.63
2022-09-24T19:42:26.591Z,100119.00
2022-09-24T19:47:23.227Z,100115.34
2022-09-24T19:52:19.852Z,100120.53
2022-09-24T19:57:16.354Z,100123.22
2022-09-24T20:02:13.007Z,100130.81
2022-09-24T20:07:09.513Z,100121.53
2022-09-24T20:12:05.831Z,100117.03
2022-09-24T20:17:02.125Z,100122.38
2022-09-24T20:21:58.885Z,100124.59
2022-09-24T20:27:13.729Z,100115.75
2022-09-24T20:32:15.255Z,100111.13
2022-09-24T20:37:11.931Z,100116.19
2022-09-24T20:42:08.243Z,100116.03
2022-09-24T20:47:04.654Z,100125.72
2022-09-24T20:52:03.000Z,100122.09
2022-09-24T20:56:59.494Z,100125.69
2022-09-24T21:01:56.267Z,100120.91
2022-09-24T21:06:52.726Z,100123.19
2022-09-24T21:11:50.341Z,100129.44
2022-09-24T21:16:47.318Z,100126.75
2022-09-24T21:21:43.814Z,100132.09
2022-09-24T21:26:40.817Z,100122.50
2022-09-24T21:31:38.496Z,100127.88
2022-09-24T21:36:44.504Z,100130.97
2022-09-24T21:41:41.299Z,100137.41
2022-09-24T21:46:38.355Z,100125.06
2022-09-24T21:51:34.675Z,100129.81
2022-09-24T21:56:32.919Z,100127.31
2022-09-24T22:01:30.568Z,100122.94
2022-09-24T22:06:29.248Z,100123.06
2022-09-24T22:11:28.459Z,100124.19
2022-09-24T22:16:24.779Z,100118.69
2022-09-24T22:21:21.503Z,100124.03
2022-09-24T22:26:18.576Z,100122.59
2022-09-24T22:31:16.873Z,100116.56
2022-09-24T22:36:13.363Z,100112.91
2022-09-24T22:41:11.002Z,100113.19
2022-09-24T22:46:10.437Z,100123.56
2022-09-24T22:51:08.289Z,100120.13
2022-09-24T22:56:19.035Z,100121.34
2022-09-24T23:01:19.948Z,100126.78
2022-09-24T23:06:16.552Z,100125.09
2022-09-24T23:11:16.664Z,100108.44
2022-09-24T23:16:17.513Z,100116.13
2022-09-24T23:21:16.857Z,100112.28
2022-09-24T23:26:18.306Z,100109.06
2022-09-24T23:31:14.755Z,100112.44
2022-09-24T23:36:13.288Z,100117.78
2022-09-24T23:41:10.826Z,100113.19
2022-09-24T23:46:08.156Z,100122.84
2022-09-24T23:51:06.051Z,100113.41
2022-09-24T23:56:04.153Z,100132.69
